createdAt,value
2018-09-14T00:00:54.528Z,100446.79
2018-09-14T00:03:22.115Z,100442.67
2018-09-14T00:05:52.681Z,100439.84
2018-09-14T00:08:21.885Z,100447.12
2018-09-14T00:10:49.492Z,100453.42
2018-09-14T00:13:17.835Z,100447.12
2018-09-14T00:15:45.582Z,100442.39
2018-09-14T00:18:13.418Z,100447.48
2018-09-14T00:20:41.001Z,100438.91
2018-09-14T00:23:08.572Z,100438.77
2018-09-14T00:25:36.193Z,100439.30
2018-09-14T00:28:04.195Z,100439.19
2018-09-14T00:30:31.780Z,100438.22
2018-09-14T00:32:59.366Z,100432.52
2018-09-14T00:35:26.916Z,100427.39
2018-09-14T00:37:54.889Z,100431.64
2018-09-14T00:40:22.444Z,100432.81
2018-09-14T00:42:50.004Z,100429.89
2018-09-14T00:45:18.498Z,100429.06
2018-09-14T00:47:46.507Z,100423.37
2018-09-14T00:50:14.132Z,100422.84
2018-09-14T00:52:41.663Z,100430.33
2018-09-14T00:55:09.674Z,100436.63
2018-09-14T00:57:37.200Z,100432.63
2018-09-14T01:00:05.375Z,100432.37
2018-09-14T01:02:32.962Z,100433.33
2018-09-14T01:05:00.883Z,100436.14
2018-09-14T01:07:28.454Z,100435.73
2018-09-14T01:09:56.006Z,100431.02
2018-09-14T01:12:23.515Z,100428.59
2018-09-14T01:14:51.557Z,100424.80
2018-09-14T01:17:19.116Z,100424.17
2018-09-14T01:19:46.682Z,100423.18
2018-09-14T01:22:14.219Z,100419.66
2018-09-14T01:24:41.811Z,100420.23
2018-09-14T01:27:09.371Z,100417.12
2018-09-14T01:29:36.854Z,100417.14
2018-09-14T01:32:05.488Z,100418.47
2018-09-14T01:34:32.995Z,100415.34
2018-09-14T01:37:00.531Z,100417.28
2018-09-14T01:39:28.026Z,100413.28
2018-09-14T01:41:55.823Z,100412.88
2018-09-14T01:44:23.314Z,100410.45
2018-09-14T01:46:50.871Z,100404.87
2018-09-14T01:49:18.432Z,100410.33
2018-09-14T01:51:46.427Z,100407.27
2018-09-14T01:54:14.047Z,100405.47
2018-09-14T01:56:41.683Z,100408.50
2018-09-14T01:59:09.548Z,100407.53
2018-09-14T02:01:37.299Z,100407.80
2018-09-14T02:04:06.064Z,100404.30
2018-09-14T02:06:33.712Z,100404.16
2018-09-14T02:09:01.595Z,100405.39
2018-09-14T02:11:29.110Z,100402.23
2018-09-14T02:13:56.723Z,100406.48
2018-09-14T02:16:24.231Z,100407.35
2018-09-14T02:18:52.088Z,100401.66
2018-09-14T02:21:19.611Z,100399.56
2018-09-14T02:23:47.135Z,100399.80
2018-09-14T02:26:14.990Z,100399.17
2018-09-14T02:28:42.554Z,100392.62
2018-09-14T02:31:10.109Z,100390.35
2018-09-14T02:33:37.636Z,100380.63
2018-09-14T02:36:05.562Z,100381.12
2018-09-14T02:38:33.067Z,100382.46
2018-09-14T02:41:00.574Z,100379.53
2018-09-14T02:43:28.435Z,100383.41
2018-09-14T02:45:55.991Z,100385.18
2018-09-14T02:48:23.596Z,100385.46
2018-09-14T02:50:51.115Z,100378.88
2018-09-14T02:53:19.005Z,100388.06
2018-09-14T02:55:46.582Z,100389.03
2018-09-14T02:58:14.093Z,100387.80
2018-09-14T03:00:43.835Z,100388.16
2018-09-14T03:03:11.345Z,100387.44
2018-09-14T03:05:39.433Z,100384.77
2018-09-14T03:08:08.002Z,100390.46
2018-09-14T03:10:35.875Z,100392.86
2018-09-14T03:13:03.444Z,100390.63
2018-09-14T03:15:30.978Z,100383.81
2018-09-14T03:17:58.505Z,100386.53
2018-09-14T03:20:26.540Z,100383.07
2018-09-14T03:22:54.101Z,100382.57
2018-09-14T03:25:21.622Z,100375.84
2018-09-14T03:27:50.413Z,100384.05
2018-09-14T03:30:18.196Z,100379.77
2018-09-14T03:32:46.355Z,100380.55
2018-09-14T03:35:13.905Z,100385.04
2018-09-14T03:37:41.809Z,100383.34
2018-09-14T03:40:09.334Z,100383.53
2018-09-14T03:42:36.898Z,100381.38
2018-09-14T03:45:05.542Z,100388.63
2018-09-14T03:47:33.051Z,100381.97
2018-09-14T03:50:00.615Z,100380.14
2018-09-14T03:52:28.543Z,100382.80
2018-09-14T03:54:56.056Z,100378.81
2018-09-14T03:57:23.671Z,100383.67
2018-09-14T03:59:51.613Z,100381.01
2018-09-14T04:02:20.887Z,100379.31
2018-09-14T04:04:48.944Z,100377.98
2018-09-14T04:07:16.797Z,100377.98
2018-09-14T04:09:44.327Z,100388.72
2018-09-14T04:12:11.805Z,100378.27
2018-09-14T04:14:39.809Z,100377.53
2018-09-14T04:17:07.311Z,100380.56
2018-09-14T04:19:34.800Z,100383.13
2018-09-14T04:22:02.809Z,100381.57
2018-09-14T04:24:32.174Z,100380.73
2018-09-14T04:26:59.671Z,100382.80
2018-09-14T04:29:27.630Z,100390.09
2018-09-14T04:31:55.170Z,100390.45
2018-09-14T04:34:22.670Z,100380.41
2018-09-14T04:36:50.618Z,100380.41
2018-09-14T04:39:18.136Z,100385.87
2018-09-14T04:41:45.648Z,100381.78
2018-09-14T04:44:13.584Z,100383.98
2018-09-14T04:46:41.121Z,100382.65
2018-09-14T04:49:08.692Z,100382.05
2018-09-14T04:51:36.568Z,100388.05
2018-09-14T04:54:05.440Z,100374.64
2018-09-14T04:56:32.999Z,100383.46
2018-09-14T04:59:00.995Z,100379.00
2018-09-14T05:01:28.523Z,100379.73
2018-09-14T05:03:56.049Z,100373.08
2018-09-14T05:06:24.272Z,100372.62
2018-09-14T05:08:51.833Z,100373.08
2018-09-14T05:11:19.339Z,100373.08
2018-09-14T05:13:47.325Z,100374.31
2018-09-14T05:16:15.907Z,100374.19
2018-09-14T05:18:44.152Z,100379.77
2018-09-14T05:21:12.202Z,100388.03
2018-09-14T05:23:39.759Z,100383.07
2018-09-14T05:26:07.263Z,100382.11
2018-09-14T05:28:35.599Z,100383.07
2018-09-14T05:31:03.169Z,100390.09
2018-09-14T05:33:30.748Z,100389.89
2018-09-14T05:35:58.605Z,100388.93
2018-09-14T05:38:26.983Z,100387.13
2018-09-14T05:40:56.612Z,100391.95
2018-09-14T05:43:24.583Z,100393.29
2018-09-14T05:45:52.469Z,100397.05
2018-09-14T05:48:19.786Z,100397.81
2018-09-14T05:50:47.644Z,100395.79
2018-09-14T05:53:16.322Z,100398.91
2018-09-14T05:55:44.508Z,100406.30
2018-09-14T05:58:13.500Z,100403.54
2018-09-14T06:00:41.154Z,100401.88
2018-09-14T06:03:08.695Z,100406.61
2018-09-14T06:05:37.199Z,100405.91
2018-09-14T06:08:04.705Z,100409.97
2018-09-14T06:10:37.912Z,100408.30
2018-09-14T06:13:05.789Z,100404.44
2018-09-14T06:15:33.290Z,100405.67
2018-09-14T06:18:00.816Z,100408.36
2018-09-14T06:20:28.710Z,100406.06
2018-09-14T06:22:56.342Z,100415.19
2018-09-14T06:25:23.791Z,100409.48
2018-09-14T06:27:51.667Z,100411.29
2018-09-14T06:30:19.242Z,100407.76
2018-09-14T06:32:46.740Z,100404.16
2018-09-14T06:35:14.568Z,100407.05
2018-09-14T06:37:42.073Z,100410.61
2018-09-14T06:40:10.403Z,100408.23
2018-09-14T06:42:38.423Z,100410.22
2018-09-14T06:45:06.668Z,100413.20
2018-09-14T06:47:34.444Z,100407.65
2018-09-14T06:50:02.537Z,100404.30
2018-09-14T06:52:30.129Z,100409.17
2018-09-14T06:54:58.543Z,100400.46
2018-09-14T06:57:26.453Z,100397.91
2018-09-14T06:59:53.930Z,100401.44
2018-09-14T07:02:21.588Z,100404.25
2018-09-14T07:04:49.467Z,100404.02
2018-09-14T07:07:17.013Z,100398.96
2018-09-14T07:09:44.500Z,100404.98
2018-09-14T07:12:12.599Z,100405.72
2018-09-14T07:14:40.084Z,100408.42
2018-09-14T07:17:11.168Z,100399.81
2018-09-14T07:19:39.035Z,100396.67
2018-09-14T07:22:06.564Z,100400.93
2018-09-14T07:24:34.121Z,100400.56
2018-09-14T07:27:03.189Z,100391.69
2018-09-14T07:29:32.403Z,100403.59
2018-09-14T07:31:59.952Z,100406.87
2018-09-14T07:34:27.811Z,100404.92
2018-09-14T07:36:55.663Z,100405.66
2018-09-14T07:39:23.165Z,100401.42
2018-09-14T07:41:52.388Z,100404.45
2018-09-14T07:44:19.912Z,100404.41
2018-09-14T07:46:47.564Z,100402.70
2018-09-14T07:49:15.428Z,100396.75
2018-09-14T07:51:44.301Z,100399.84
2018-09-14T07:54:12.415Z,100396.91
2018-09-14T07:56:40.003Z,100400.15
2018-09-14T07:59:07.851Z,100398.16
2018-09-14T08:01:38.859Z,100400.88
2018-09-14T08:04:06.527Z,100403.33
2018-09-14T08:06:34.089Z,100398.11
2018-09-14T08:09:02.099Z,100396.86
2018-09-14T08:11:29.640Z,100403.98
2018-09-14T08:13:57.195Z,100396.52
2018-09-14T08:16:27.235Z,100402.56
2018-09-14T08:18:54.750Z,100394.72
2018-09-14T08:21:22.343Z,100409.43
2018-09-14T08:23:50.577Z,100399.70
2018-09-14T08:26:21.635Z,100403.37
2018-09-14T08:28:51.218Z,100406.59
2018-09-14T08:31:20.464Z,100406.38
2018-09-14T08:33:48.563Z,100408.12
2018-09-14T08:36:16.094Z,100406.20
2018-09-14T08:38:43.956Z,100400.02
2018-09-14T08:41:13.107Z,100407.25
2018-09-14T08:43:40.720Z,100403.47
2018-09-14T08:46:08.599Z,100398.27
2018-09-14T08:48:36.244Z,100398.30
2018-09-14T08:51:03.858Z,100400.63
2018-09-14T08:53:31.809Z,100398.24
2018-09-14T08:55:59.407Z,100400.22
2018-09-14T08:58:26.926Z,100400.86
2018-09-14T09:00:56.225Z,100395.30
2018-09-14T09:03:24.820Z,100397.83
2018-09-14T09:05:52.323Z,100403.65
2018-09-14T09:08:20.869Z,100402.42
2018-09-14T09:10:48.451Z,100401.20
2018-09-14T09:13:16.611Z,100400.51
2018-09-14T09:15:44.611Z,100397.33
2018-09-14T09:18:13.294Z,100399.55
2018-09-14T09:20:40.879Z,100398.27
2018-09-14T09:23:10.021Z,100395.64
2018-09-14T09:25:37.680Z,100397.13
2018-09-14T09:28:05.237Z,100396.48
2018-09-14T09:30:33.381Z,100395.29
2018-09-14T09:33:02.107Z,100389.03
2018-09-14T09:35:29.620Z,100387.86
2018-09-14T09:37:58.625Z,100392.41
2018-09-14T09:40:27.458Z,100394.02
2018-09-14T09:42:55.024Z,100395.77
2018-09-14T09:45:24.317Z,100392.75
2018-09-14T09:47:51.871Z,100389.89
2018-09-14T09:50:20.537Z,100393.24
2018-09-14T09:52:48.485Z,100397.32
2018-09-14T09:55:16.809Z,100387.01
2018-09-14T09:57:44.772Z,100386.98
2018-09-14T10:00:18.570Z,100391.25
2018-09-14T10:02:51.273Z,100391.40
2018-09-14T10:05:27.360Z,100391.08
2018-09-14T10:07:55.359Z,100397.14
2018-09-14T10:10:24.079Z,100393.41
2018-09-14T10:12:51.623Z,100388.33
2018-09-14T10:15:22.927Z,100385.12
2018-09-14T10:17:51.522Z,100384.62
2018-09-14T10:20:20.652Z,100382.63
2018-09-14T10:22:49.164Z,100374.09
2018-09-14T10:25:16.696Z,100369.32
2018-09-14T10:27:44.267Z,100367.81
2018-09-14T10:30:12.151Z,100366.30
2018-09-14T10:32:42.731Z,100370.75
2018-09-14T10:35:10.409Z,100363.91
2018-09-14T10:37:38.415Z,100358.73
2018-09-14T10:40:06.863Z,100362.16
2018-09-14T10:42:35.398Z,100360.97
2018-09-14T10:45:05.360Z,100366.37
2018-09-14T10:47:32.908Z,100357.23
2018-09-14T10:50:00.552Z,100355.00
2018-09-14T10:52:31.341Z,100356.44
2018-09-14T10:54:58.940Z,100359.89
2018-09-14T10:57:26.628Z,100358.41
2018-09-14T10:59:54.636Z,100358.02
2018-09-14T11:02:22.468Z,100348.54
2018-09-14T11:04:51.365Z,100345.79
2018-09-14T11:07:21.326Z,100331.02
2018-09-14T11:09:49.765Z,100330.95
2018-09-14T11:12:20.528Z,100335.36
2018-09-14T11:14:49.026Z,100334.56
2018-09-14T11:17:16.609Z,100330.16
2018-09-14T11:19:46.785Z,100340.20
2018-09-14T11:22:15.700Z,100334.56
2018-09-14T11:24:46.498Z,100326.03
2018-09-14T11:27:13.958Z,100334.45
2018-09-14T11:29:41.857Z,100340.16
2018-09-14T11:32:13.195Z,100337.49
2018-09-14T11:34:41.737Z,100333.61
2018-09-14T11:37:09.700Z,100327.70
2018-09-14T11:39:38.249Z,100323.47
2018-09-14T11:42:05.798Z,100321.30
2018-09-14T11:44:34.495Z,100316.73
2018-09-14T11:47:02.034Z,100321.09
2018-09-14T11:49:29.555Z,100318.37
2018-09-14T11:51:57.571Z,100326.38
2018-09-14T11:54:27.365Z,100315.59
2018-09-14T11:56:54.938Z,100317.09
2018-09-14T11:59:25.390Z,100313.61
2018-09-14T12:01:53.551Z,100308.99
2018-09-14T12:04:21.116Z,100301.89
2018-09-14T12:06:49.539Z,100290.06
2018-09-14T12:09:17.841Z,100286.56
2018-09-14T12:11:47.203Z,100289.09
2018-09-14T12:14:17.031Z,100272.97
2018-09-14T12:16:45.328Z,100277.25
2018-09-14T12:19:14.176Z,100281.80
2018-09-14T12:21:43.136Z,100286.44
2018-09-14T12:24:12.374Z,100284.28
2018-09-14T12:26:41.450Z,100275.12
2018-09-14T12:29:10.403Z,100272.44
2018-09-14T12:31:37.923Z,100261.03
2018-09-14T12:34:05.423Z,100269.33
2018-09-14T12:36:33.396Z,100270.38
2018-09-14T12:39:01.892Z,100272.35
2018-09-14T12:41:32.085Z,100275.67
2018-09-14T12:44:00.645Z,100281.30
2018-09-14T12:46:31.391Z,100279.05
2018-09-14T12:49:00.150Z,100273.92
2018-09-14T12:51:29.140Z,100275.08
2018-09-14T12:53:57.756Z,100268.72
2018-09-14T12:58:53.863Z,100268.64
2018-09-14T13:01:22.826Z,100271.06
2018-09-14T13:03:50.327Z,100267.31
2018-09-14T13:06:19.207Z,100261.05
2018-09-14T13:08:47.706Z,100257.87
2018-09-14T13:11:15.835Z,100263.33
2018-09-14T13:13:44.802Z,100265.20
2018-09-14T13:16:12.730Z,100258.56
2018-09-14T13:18:41.582Z,100254.68
2018-09-14T13:21:09.913Z,100258.82
2018-09-14T13:23:37.446Z,100262.62
2018-09-14T13:26:04.968Z,100257.09
2018-09-14T13:28:32.520Z,100260.05
2018-09-14T13:31:01.307Z,100259.02
2018-09-14T13:33:29.138Z,100257.09
2018-09-14T13:35:56.638Z,100254.41
2018-09-14T13:38:24.159Z,100256.42
2018-09-14T13:40:53.374Z,100256.39
2018-09-14T13:43:20.912Z,100254.57
2018-09-14T13:45:48.415Z,100261.27
2018-09-14T13:48:16.946Z,100255.29
2018-09-14T13:50:49.106Z,100255.21
2018-09-14T13:53:16.603Z,100253.41
2018-09-14T13:55:44.583Z,100250.37
2018-09-14T13:58:12.176Z,100250.60
2018-09-14T14:00:39.708Z,100245.73
2018-09-14T14:03:10.563Z,100247.55
2018-09-14T14:08:22.109Z,100249.80
2018-09-14T14:10:50.538Z,100249.50
2018-09-14T14:13:19.072Z,100242.27
2018-09-14T14:15:48.761Z,100246.06
2018-09-14T14:18:16.298Z,100239.02
2018-09-14T14:20:44.592Z,100241.88
2018-09-14T14:23:13.332Z,100232.02
2018-09-14T14:25:40.838Z,100235.39
2018-09-14T14:28:08.407Z,100235.90
2018-09-14T14:30:36.682Z,100235.39
2018-09-14T14:33:05.865Z,100229.98
2018-09-14T14:35:33.365Z,100236.70
2018-09-14T14:38:02.899Z,100236.47
2018-09-14T14:40:30.445Z,100235.91
2018-09-14T14:42:57.976Z,100236.73
2018-09-14T14:45:25.973Z,100230.37
2018-09-14T14:47:53.714Z,100231.28
2018-09-14T14:50:22.215Z,100230.28
2018-09-14T14:52:50.059Z,100228.52
2018-09-14T14:55:17.582Z,100232.88
2018-09-14T14:57:45.250Z,100223.34
2018-09-14T15:00:13.115Z,100228.36
2018-09-14T15:02:41.149Z,100229.64
2018-09-14T15:05:08.687Z,100229.38
2018-09-14T15:07:37.145Z,100222.19
2018-09-14T15:10:05.895Z,100216.80
2018-09-14T15:12:34.340Z,100215.51
2018-09-14T15:15:02.308Z,100208.23
2018-09-14T15:17:29.883Z,100204.55
2018-09-14T15:19:57.394Z,100208.76
2018-09-14T15:22:25.974Z,100208.52
2018-09-14T15:24:54.613Z,100216.92
2018-09-14T15:27:22.154Z,100211.86
2018-09-14T15:29:51.675Z,100218.52
2018-09-14T15:32:19.333Z,100220.80
2018-09-14T15:34:46.821Z,100217.11
2018-09-14T15:37:14.600Z,100220.76
2018-09-14T15:39:42.152Z,100213.82
2018-09-14T15:42:09.666Z,100213.86
2018-09-14T15:44:39.245Z,100216.60
2018-09-14T15:47:07.435Z,100217.33
2018-09-14T15:49:35.726Z,100219.21
2018-09-14T15:52:03.719Z,100209.01
2018-09-14T15:54:31.235Z,100214.72
2018-09-14T15:56:59.279Z,100215.79
2018-09-14T15:59:27.260Z,100217.11
2018-09-14T16:01:56.491Z,100220.95
2018-09-14T16:04:25.144Z,100216.34
2018-09-14T16:06:53.092Z,100221.78
2018-09-14T16:09:21.375Z,100219.81
2018-09-14T16:11:49.258Z,100215.31
2018-09-14T16:14:17.239Z,100222.09
2018-09-14T16:16:44.743Z,100213.66
2018-09-14T16:19:12.275Z,100213.70
2018-09-14T16:21:40.111Z,100220.19
2018-09-14T16:24:07.708Z,100213.16
2018-09-14T16:26:38.431Z,100225.25
2018-09-14T16:29:07.303Z,100217.86
2018-09-14T16:31:35.096Z,100221.31
2018-09-14T16:34:04.170Z,100223.86
2018-09-14T16:36:33.407Z,100224.92
2018-09-14T16:39:00.930Z,100230.31
2018-09-14T16:41:30.080Z,100226.27
2018-09-14T16:43:59.080Z,100235.41
2018-09-14T16:46:26.688Z,100230.66
2018-09-14T16:48:54.854Z,100235.56
2018-09-14T16:51:23.370Z,100233.03
2018-09-14T16:53:50.928Z,100232.33
2018-09-14T16:56:18.866Z,100225.59
2018-09-14T16:58:48.044Z,100223.55
2018-09-14T17:03:50.748Z,100220.50
2018-09-14T17:06:19.339Z,100221.20
2018-09-14T17:08:46.933Z,100227.94
2018-09-14T17:11:18.514Z,100222.54
2018-09-14T17:13:46.079Z,100229.61
2018-09-14T17:16:13.637Z,100225.88
2018-09-14T17:18:41.546Z,100229.39
2018-09-14T17:21:10.102Z,100230.91
2018-09-14T17:23:38.219Z,100238.48
2018-09-14T17:26:07.951Z,100233.77
2018-09-14T17:28:36.300Z,100236.12
2018-09-14T17:31:03.811Z,100233.92
2018-09-14T17:33:33.967Z,100237.56
2018-09-14T17:36:02.099Z,100236.53
2018-09-14T17:38:30.419Z,100238.19
2018-09-14T17:41:00.100Z,100236.47
2018-09-14T17:43:27.663Z,100236.09
2018-09-14T17:45:55.176Z,100244.15
2018-09-14T17:48:23.891Z,100241.91
2018-09-14T17:50:51.699Z,100239.88
2018-09-14T17:53:20.129Z,100245.22
2018-09-14T17:55:48.098Z,100243.64
2018-09-14T17:58:15.579Z,100253.70
2018-09-14T18:00:43.199Z,100250.32
2018-09-14T18:03:11.136Z,100258.51
2018-09-14T18:05:39.475Z,100254.75
2018-09-14T18:10:40.862Z,100257.19
2018-09-14T18:13:09.348Z,100253.97
2018-09-14T18:15:37.598Z,100261.84
2018-09-14T18:18:05.458Z,100260.45
2018-09-14T18:20:33.304Z,100257.89
2018-09-14T18:23:02.350Z,100266.09
2018-09-14T18:25:31.662Z,100270.08
2018-09-14T18:27:59.204Z,100272.70
2018-09-14T18:30:27.237Z,100271.97
2018-09-14T18:32:56.260Z,100268.73
2018-09-14T18:35:24.402Z,100271.75
2018-09-14T18:37:52.745Z,100277.59
2018-09-14T18:40:21.215Z,100278.53
2018-09-14T18:42:49.470Z,100280.00
2018-09-14T18:45:17.792Z,100270.56
2018-09-14T18:47:48.073Z,100274.19
2018-09-14T18:50:15.711Z,100280.71
2018-09-14T18:52:43.460Z,100276.48
2018-09-14T18:55:14.891Z,100280.31
2018-09-14T18:57:42.692Z,100284.31
2018-09-14T19:00:15.756Z,100280.42
2018-09-14T19:02:45.154Z,100287.11
2018-09-14T19:05:13.748Z,100288.81
2018-09-14T19:08:00.450Z,100289.38
2018-09-14T19:10:28.566Z,100288.41
2018-09-14T19:12:57.215Z,100289.14
2018-09-14T19:15:24.840Z,100291.72
2018-09-14T19:17:52.819Z,100283.28
2018-09-14T19:20:21.646Z,100292.82
2018-09-14T19:22:49.845Z,100290.65
2018-09-14T19:25:19.292Z,100292.82
2018-09-14T19:27:48.120Z,100300.95
2018-09-14T19:30:16.540Z,100300.64
2018-09-14T19:32:49.203Z,100298.81
2018-09-14T19:35:16.824Z,100298.99
2018-09-14T19:37:45.339Z,100301.88
2018-09-14T19:40:13.412Z,100294.89
2018-09-14T19:42:44.562Z,100299.30
2018-09-14T19:45:14.078Z,100294.00
2018-09-14T19:47:45.016Z,100294.55
2018-09-14T19:50:13.957Z,100304.16
2018-09-14T19:52:42.239Z,100298.13
2018-09-14T19:55:11.645Z,100299.95
2018-09-14T19:57:39.259Z,100298.13
2018-09-14T20:00:08.150Z,100297.44
2018-09-14T20:02:36.625Z,100293.55
2018-09-14T20:05:06.390Z,100293.65
2018-09-14T20:07:34.612Z,100297.13
2018-09-14T20:10:02.391Z,100293.89
2018-09-14T20:12:33.562Z,100295.38
2018-09-14T20:15:01.648Z,100300.20
2018-09-14T20:17:31.169Z,100297.30
2018-09-14T20:19:59.582Z,100295.61
2018-09-14T20:22:29.892Z,100288.34
2018-09-14T20:24:58.333Z,100294.72
2018-09-14T20:27:26.439Z,100295.50
2018-09-14T20:29:55.569Z,100295.95
2018-09-14T20:32:23.416Z,100297.73
2018-09-14T20:34:52.366Z,100295.97
2018-09-14T20:37:21.947Z,100293.25
2018-09-14T20:39:54.540Z,100293.69
2018-09-14T20:42:22.719Z,100308.73
2018-09-14T20:44:50.739Z,100305.00
2018-09-14T20:55:16.126Z,100304.92
2018-09-14T20:57:44.363Z,100309.60
2018-09-14T21:00:11.962Z,100315.89
2018-09-14T21:02:41.019Z,100302.42
2018-09-14T21:05:10.346Z,100315.28
2018-09-14T21:07:39.044Z,100317.27
2018-09-14T21:10:07.906Z,100326.50
2018-09-14T21:12:35.412Z,100324.89
2018-09-14T21:15:03.250Z,100324.59
2018-09-14T21:17:31.278Z,100324.50
2018-09-14T21:20:00.020Z,100331.77
2018-09-14T21:22:29.319Z,100335.87
2018-09-14T21:24:58.456Z,100339.13
2018-09-14T21:27:26.005Z,100343.70
2018-09-14T21:29:53.567Z,100343.55
2018-09-14T21:32:21.415Z,100346.61
2018-09-14T21:34:50.291Z,100346.61
2018-09-14T21:37:20.510Z,100349.13
2018-09-14T21:39:48.465Z,100349.13
2018-09-14T21:42:16.262Z,100355.14
2018-09-14T21:44:45.307Z,100353.45
2018-09-14T21:47:15.405Z,100360.44
2018-09-14T21:49:44.090Z,100359.74
2018-09-14T21:52:11.629Z,100359.74
2018-09-14T21:54:40.275Z,100360.73
2018-09-14T21:57:07.864Z,100357.70
2018-09-14T21:59:36.606Z,100358.36
2018-09-14T22:02:06.528Z,100360.83
2018-09-14T22:04:34.051Z,100363.16
2018-09-14T22:07:02.213Z,100367.67
2018-09-14T22:09:31.802Z,100371.22
2018-09-14T22:12:02.355Z,100373.55
2018-09-14T22:14:31.401Z,100374.38
2018-09-14T22:16:59.311Z,100379.75
2018-09-14T22:19:29.275Z,100380.09
2018-09-14T22:21:56.903Z,100374.03
2018-09-14T22:24:26.343Z,100372.21
2018-09-14T22:26:54.071Z,100374.68
2018-09-14T22:29:21.650Z,100372.48
2018-09-14T22:31:49.492Z,100366.41
2018-09-14T22:34:17.014Z,100384.86
2018-09-14T22:36:44.645Z,100374.38
2018-09-14T22:39:14.526Z,100377.58
2018-09-14T22:41:43.271Z,100371.14
2018-09-14T22:44:10.935Z,100370.78
2018-09-14T22:46:38.476Z,100371.78
2018-09-14T22:49:06.481Z,100375.94
2018-09-14T22:51:34.023Z,100376.23
2018-09-14T22:54:01.585Z,100376.72
2018-09-14T22:56:29.566Z,100376.72
2018-09-14T22:58:57.172Z,100379.91
2018-09-14T23:01:24.727Z,100376.88
2018-09-14T23:03:52.802Z,100375.19
2018-09-14T23:06:23.325Z,100380.05
2018-09-14T23:08:50.838Z,100377.36
2018-09-14T23:11:22.406Z,100379.34
2018-09-14T23:13:50.070Z,100379.73
2018-09-14T23:16:17.583Z,100385.31
2018-09-14T23:18:45.560Z,100390.02
2018-09-14T23:21:14.166Z,100391.38
2018-09-14T23:23:41.699Z,100395.73
2018-09-14T23:26:11.810Z,100392.77
2018-09-14T23:28:39.285Z,100394.66
2018-09-14T23:31:06.796Z,100392.52
2018-09-14T23:33:34.428Z,100395.27
2018-09-14T23:36:02.540Z,100393.13
2018-09-14T23:38:30.037Z,100391.84
2018-09-14T23:40:58.051Z,100392.73
2018-09-14T23:43:26.092Z,100393.27
2018-09-14T23:45:53.987Z,100390.30
2018-09-14T23:48:21.561Z,100392.05
2018-09-14T23:50:49.935Z,100403.17
2018-09-14T23:53:17.874Z,100404.05
2018-09-14T23:55:45.422Z,100403.12
2018-09-14T23:58:13.187Z,100400.48
